createdAt,value
2019-03-09T00:02:00.252Z,7.00
2019-03-09T00:04:28.118Z,7.00
2019-03-09T00:06:55.528Z,7.00
2019-03-09T00:09:23.015Z,7.10
2019-03-09T00:11:50.497Z,7.10
2019-03-09T00:14:18.082Z,7.10
2019-03-09T00:16:45.720Z,7.10
2019-03-09T00:19:13.372Z,7.10
2019-03-09T00:21:40.995Z,7.10
2019-03-09T00:24:28.637Z,7.10
2019-03-09T00:27:15.703Z,7.00
2019-03-09T00:29:54.848Z,7.00
2019-03-09T00:32:24.710Z,7.00
2019-03-09T00:34:52.317Z,7.00
2019-03-09T00:37:20.001Z,7.10
2019-03-09T00:39:47.429Z,7.10
2019-03-09T00:42:14.911Z,7.00
2019-03-09T00:44:42.417Z,7.00
2019-03-09T00:47:10.094Z,7.00
2019-03-09T00:49:37.474Z,7.00
2019-03-09T00:52:05.052Z,7.00
2019-03-09T00:54:32.584Z,6.90
2019-03-09T00:57:00.660Z,6.90
2019-03-09T00:59:28.153Z,6.90
2019-03-09T01:01:55.696Z,6.90
2019-03-09T01:04:23.090Z,6.90
2019-03-09T01:06:50.506Z,6.90
2019-03-09T01:09:17.764Z,6.90
2019-03-09T01:11:45.379Z,6.90
2019-03-09T01:14:12.919Z,6.90
2019-03-09T01:16:40.561Z,6.90
2019-03-09T01:19:08.113Z,6.80
2019-03-09T01:21:35.544Z,6.80
2019-03-09T01:24:03.002Z,6.80
2019-03-09T01:26:30.297Z,6.80
2019-03-09T01:28:57.870Z,6.80
2019-03-09T01:31:25.353Z,6.80
2019-03-09T01:33:52.836Z,6.80
2019-03-09T01:36:20.674Z,6.80
2019-03-09T01:38:48.222Z,6.80
2019-03-09T01:41:20.184Z,6.80
2019-03-09T01:43:48.140Z,6.70
2019-03-09T01:46:15.549Z,6.80
2019-03-09T01:48:43.203Z,6.70
2019-03-09T01:51:10.707Z,6.80
2019-03-09T01:53:38.334Z,6.80
2019-03-09T01:56:05.701Z,6.80
2019-03-09T01:58:33.294Z,6.70
2019-03-09T02:01:01.008Z,6.70
2019-03-09T02:03:28.992Z,6.70
2019-03-09T02:05:57.606Z,6.70
2019-03-09T02:08:25.154Z,6.60
2019-03-09T02:10:52.410Z,6.60
2019-03-09T02:13:19.939Z,6.60
2019-03-09T02:15:48.218Z,6.60
2019-03-09T02:18:15.495Z,6.60
2019-03-09T02:20:43.036Z,6.60
2019-03-09T02:23:10.608Z,6.60
2019-03-09T02:25:38.105Z,6.60
2019-03-09T02:28:05.805Z,6.60
2019-03-09T02:30:33.231Z,6.60
2019-03-09T02:33:01.282Z,6.60
2019-03-09T02:35:28.933Z,6.60
2019-03-09T02:38:03.531Z,6.60
2019-03-09T02:40:31.989Z,6.60
2019-03-09T02:42:59.411Z,6.60
2019-03-09T02:45:27.384Z,6.60
2019-03-09T02:47:54.950Z,6.60
2019-03-09T02:50:22.210Z,6.60
2019-03-09T02:52:50.069Z,6.60
2019-03-09T02:55:17.545Z,6.60
2019-03-09T02:57:44.911Z,6.60
2019-03-09T03:00:15.869Z,6.60
2019-03-09T03:02:46.970Z,6.60
2019-03-09T03:05:14.855Z,6.60
2019-03-09T03:07:42.174Z,6.60
2019-03-09T03:10:10.828Z,6.70
2019-03-09T03:12:38.210Z,6.70
2019-03-09T03:15:05.705Z,6.70
2019-03-09T03:17:33.172Z,6.70
2019-03-09T03:20:00.634Z,6.70
2019-03-09T03:22:28.034Z,6.70
2019-03-09T03:24:55.419Z,6.70
2019-03-09T03:27:22.757Z,6.70
2019-03-09T03:29:50.410Z,6.70
2019-03-09T03:32:17.934Z,6.70
2019-03-09T03:34:45.414Z,6.80
2019-03-09T03:37:12.723Z,6.80
2019-03-09T03:39:39.981Z,6.80
2019-03-09T03:42:07.363Z,6.80
2019-03-09T03:44:43.741Z,6.80
2019-03-09T03:47:12.480Z,6.80
2019-03-09T03:49:40.065Z,6.90
2019-03-09T03:52:07.559Z,6.90
2019-03-09T03:54:34.966Z,6.90
2019-03-09T03:57:02.339Z,6.90
2019-03-09T03:59:29.719Z,6.90
2019-03-09T04:01:57.142Z,7.00
2019-03-09T04:04:24.635Z,7.00
2019-03-09T04:06:52.257Z,7.00
2019-03-09T04:09:20.454Z,7.00
2019-03-09T04:11:49.518Z,7.00
2019-03-09T04:14:18.272Z,7.10
2019-03-09T04:16:45.631Z,7.10
2019-03-09T04:19:13.057Z,7.20
2019-03-09T04:21:40.413Z,7.20
2019-03-09T04:24:07.920Z,7.20
2019-03-09T04:26:35.422Z,7.20
2019-03-09T04:29:02.929Z,7.20
2019-03-09T04:31:30.475Z,7.20
2019-03-09T04:33:59.734Z,7.30
2019-03-09T04:36:27.520Z,7.30
2019-03-09T04:38:55.166Z,7.30
2019-03-09T04:41:22.573Z,7.30
2019-03-09T04:43:50.113Z,7.30
2019-03-09T04:46:17.362Z,7.30
2019-03-09T04:48:44.779Z,7.30
2019-03-09T04:51:12.155Z,7.40
2019-03-09T04:53:39.505Z,7.40
2019-03-09T04:56:08.099Z,7.40
2019-03-09T04:58:35.720Z,7.40
2019-03-09T05:01:03.054Z,7.40
2019-03-09T05:03:43.598Z,7.50
2019-03-09T05:06:15.559Z,7.50
2019-03-09T05:09:01.301Z,7.50
2019-03-09T05:11:31.481Z,7.50
2019-03-09T05:14:18.612Z,7.50
2019-03-09T05:16:46.232Z,7.40
2019-03-09T05:19:13.814Z,7.40
2019-03-09T05:21:41.269Z,7.50
2019-03-09T05:24:08.694Z,7.50
2019-03-09T05:26:35.969Z,7.60
2019-03-09T05:29:03.325Z,7.60
2019-03-09T05:31:30.793Z,7.60
2019-03-09T05:33:58.414Z,7.50
2019-03-09T05:36:25.792Z,7.50
2019-03-09T05:38:53.550Z,7.50
2019-03-09T05:41:22.637Z,7.50
2019-03-09T05:43:49.945Z,7.50
2019-03-09T05:46:17.377Z,7.50
2019-03-09T05:48:44.641Z,7.50
2019-03-09T05:51:14.026Z,7.50
2019-03-09T05:53:41.541Z,7.50
2019-03-09T05:56:08.949Z,7.60
2019-03-09T05:58:39.959Z,7.60
2019-03-09T06:01:07.454Z,7.60
2019-03-09T06:03:34.849Z,7.60
2019-03-09T06:06:05.279Z,7.60
2019-03-09T06:08:32.565Z,7.60
2019-03-09T06:10:59.918Z,7.50
2019-03-09T06:13:28.557Z,7.50
2019-03-09T06:15:56.080Z,7.50
2019-03-09T06:18:23.592Z,7.50
2019-03-09T06:20:51.021Z,7.50
2019-03-09T06:23:18.401Z,7.50
2019-03-09T06:25:45.643Z,7.50
2019-03-09T06:28:12.907Z,7.50
2019-03-09T06:30:40.383Z,7.60
2019-03-09T06:33:40.174Z,7.70
2019-03-09T06:36:18.153Z,7.70
2019-03-09T06:38:55.094Z,7.60
2019-03-09T06:41:53.561Z,7.60
2019-03-09T06:44:21.058Z,7.60
2019-03-09T06:46:50.015Z,7.60
2019-03-09T06:49:17.570Z,7.60
2019-03-09T06:51:45.012Z,7.60
2019-03-09T06:54:12.791Z,7.70
2019-03-09T06:56:42.328Z,7.70
2019-03-09T06:59:09.874Z,7.80
2019-03-09T07:01:37.371Z,7.80
2019-03-09T07:04:05.023Z,7.80
2019-03-09T07:06:32.485Z,7.90
2019-03-09T07:08:59.796Z,7.90
2019-03-09T07:11:27.341Z,7.90
2019-03-09T07:13:54.787Z,7.90
2019-03-09T07:16:24.213Z,7.90
2019-03-09T07:18:51.673Z,7.90
2019-03-09T07:21:20.352Z,8.00
2019-03-09T07:23:50.390Z,8.00
2019-03-09T07:26:17.919Z,8.10
2019-03-09T07:28:45.395Z,8.10
2019-03-09T07:31:12.900Z,8.10
2019-03-09T07:33:40.519Z,8.20
2019-03-09T07:36:08.069Z,8.20
2019-03-09T07:38:35.462Z,8.20
2019-03-09T07:41:02.876Z,8.20
2019-03-09T07:43:30.146Z,8.30
2019-03-09T07:45:57.587Z,8.40
2019-03-09T07:48:25.034Z,8.40
2019-03-09T07:50:52.383Z,8.50
2019-03-09T07:53:21.061Z,8.60
2019-03-09T07:55:50.122Z,8.60
2019-03-09T07:58:17.475Z,8.60
2019-03-09T08:00:44.953Z,8.70
2019-03-09T08:03:13.478Z,8.70
2019-03-09T08:05:41.156Z,8.70
2019-03-09T08:08:08.731Z,8.90
2019-03-09T08:10:36.197Z,8.90
2019-03-09T08:13:05.380Z,8.90
2019-03-09T08:15:32.977Z,8.90
2019-03-09T08:18:00.505Z,8.90
2019-03-09T08:20:27.903Z,8.90
2019-03-09T08:22:57.010Z,8.90
2019-03-09T08:25:24.540Z,8.90
2019-03-09T08:27:51.859Z,8.90
2019-03-09T08:30:20.836Z,9.00
2019-03-09T08:32:48.503Z,9.00
2019-03-09T08:35:18.175Z,9.00
2019-03-09T08:37:45.972Z,9.00
2019-03-09T08:40:14.061Z,9.00
2019-03-09T08:42:41.383Z,9.00
2019-03-09T08:45:09.086Z,9.00
2019-03-09T08:47:36.577Z,9.00
2019-03-09T08:50:05.230Z,9.00
2019-03-09T08:52:32.828Z,9.10
2019-03-09T08:55:00.401Z,9.10
2019-03-09T08:57:27.854Z,9.10
2019-03-09T08:59:55.316Z,9.10
2019-03-09T09:02:22.892Z,9.10
2019-03-09T09:04:50.369Z,9.10
2019-03-09T09:07:18.771Z,9.20
2019-03-09T09:09:46.087Z,9.20
2019-03-09T09:12:13.517Z,9.20
2019-03-09T09:14:41.054Z,9.30
2019-03-09T09:17:08.458Z,9.30
2019-03-09T09:19:35.846Z,9.40
2019-03-09T09:22:03.289Z,9.50
2019-03-09T09:24:33.091Z,9.50
2019-03-09T09:27:00.567Z,9.60
2019-03-09T09:29:27.945Z,9.60
2019-03-09T09:31:55.298Z,9.60
2019-03-09T09:34:22.713Z,9.60
2019-03-09T09:36:50.219Z,9.70
2019-03-09T09:39:17.539Z,9.80
2019-03-09T09:41:47.099Z,9.90
2019-03-09T09:44:14.554Z,9.90
2019-03-09T09:46:41.921Z,10.00
2019-03-09T09:49:09.215Z,10.10
2019-03-09T09:51:36.697Z,10.10
2019-03-09T09:54:04.334Z,10.10
2019-03-09T09:56:31.940Z,10.10
2019-03-09T09:58:59.385Z,10.20
2019-03-09T10:01:26.846Z,10.20
2019-03-09T10:03:56.002Z,10.20
2019-03-09T10:06:24.826Z,10.30
2019-03-09T10:08:52.192Z,10.30
2019-03-09T10:11:19.574Z,10.30
2019-03-09T10:13:47.001Z,10.30
2019-03-09T10:16:14.581Z,10.30
2019-03-09T10:18:41.894Z,10.40
2019-03-09T10:21:09.204Z,10.50
2019-03-09T10:23:36.761Z,10.50
2019-03-09T10:26:04.202Z,10.50
2019-03-09T10:28:31.702Z,10.60
2019-03-09T10:30:59.179Z,10.70
2019-03-09T10:33:26.688Z,10.70
2019-03-09T10:35:55.333Z,10.70
2019-03-09T10:38:23.901Z,10.70
2019-03-09T10:40:51.626Z,10.70
2019-03-09T10:43:19.154Z,10.70
2019-03-09T10:45:46.602Z,10.80
2019-03-09T10:48:13.910Z,10.90
2019-03-09T10:50:41.418Z,11.00
2019-03-09T10:53:08.985Z,11.10
2019-03-09T10:55:36.374Z,11.20
2019-03-09T10:58:04.002Z,11.30
2019-03-09T11:00:32.317Z,11.40
2019-03-09T11:02:59.641Z,11.40
2019-03-09T11:05:28.881Z,11.40
2019-03-09T11:07:56.481Z,11.40
2019-03-09T11:10:24.070Z,11.30
2019-03-09T11:12:51.641Z,11.20
2019-03-09T11:15:21.343Z,11.30
2019-03-09T11:17:48.855Z,11.20
2019-03-09T11:20:18.317Z,11.20
2019-03-09T11:22:45.723Z,11.20
2019-03-09T11:25:13.276Z,11.20
2019-03-09T11:27:40.673Z,11.20
2019-03-09T11:30:11.833Z,11.20
2019-03-09T11:32:39.224Z,11.30
2019-03-09T11:35:06.609Z,11.40
2019-03-09T11:37:34.030Z,11.50
2019-03-09T11:40:01.359Z,11.60
2019-03-09T11:42:28.663Z,11.60
2019-03-09T11:44:55.966Z,11.70
2019-03-09T11:47:23.414Z,11.80
2019-03-09T11:49:51.036Z,11.90
2019-03-09T11:52:20.338Z,12.00
2019-03-09T11:54:47.798Z,12.10
2019-03-09T11:57:15.277Z,12.10
2019-03-09T11:59:43.703Z,12.10
2019-03-09T12:02:11.065Z,12.10
2019-03-09T12:04:46.257Z,12.00
2019-03-09T12:07:07.803Z,12.00
2019-03-09T12:09:35.285Z,12.10
2019-03-09T12:12:03.049Z,12.10
2019-03-09T12:14:30.678Z,12.10
2019-03-09T12:16:58.288Z,12.10
2019-03-09T12:19:26.666Z,12.10
2019-03-09T12:21:54.179Z,12.10
2019-03-09T12:24:21.698Z,12.10
2019-03-09T12:26:49.095Z,12.00
2019-03-09T12:29:16.608Z,12.10
2019-03-09T12:31:43.961Z,12.10
2019-03-09T12:34:11.228Z,12.20
2019-03-09T12:36:38.609Z,12.20
2019-03-09T12:39:08.042Z,12.20
2019-03-09T12:41:35.623Z,12.10
2019-03-09T12:44:03.108Z,12.10
2019-03-09T12:46:30.506Z,12.00
2019-03-09T12:48:57.897Z,11.90
2019-03-09T12:51:25.528Z,11.90
2019-03-09T12:53:52.913Z,11.80
2019-03-09T12:56:20.626Z,11.60
2019-03-09T12:58:49.061Z,11.60
2019-03-09T13:01:16.485Z,11.60
2019-03-09T13:03:43.819Z,11.60
2019-03-09T13:06:11.206Z,11.60
2019-03-09T13:08:38.588Z,11.60
2019-03-09T13:11:06.087Z,11.60
2019-03-09T13:13:34.461Z,11.60
2019-03-09T13:16:01.813Z,11.60
2019-03-09T13:18:29.076Z,11.60
2019-03-09T13:20:59.532Z,11.60
2019-03-09T13:23:27.009Z,11.70
2019-03-09T13:25:54.501Z,11.70
2019-03-09T13:28:22.225Z,11.70
2019-03-09T13:30:51.486Z,11.80
2019-03-09T13:33:18.912Z,11.90
2019-03-09T13:35:46.346Z,11.90
2019-03-09T13:38:13.777Z,12.00
2019-03-09T13:40:41.189Z,11.90
2019-03-09T13:43:08.674Z,11.90
2019-03-09T13:45:35.991Z,11.90
2019-03-09T13:48:03.497Z,11.90
2019-03-09T13:50:30.898Z,12.00
2019-03-09T13:52:58.733Z,12.00
2019-03-09T13:55:26.062Z,12.00
2019-03-09T13:57:53.350Z,12.10
2019-03-09T14:00:21.883Z,12.10
2019-03-09T14:02:49.337Z,12.00
2019-03-09T14:05:16.629Z,12.00
2019-03-09T14:07:45.306Z,11.90
2019-03-09T14:10:12.674Z,11.70
2019-03-09T14:12:40.098Z,11.60
2019-03-09T14:15:09.261Z,11.60
2019-03-09T14:17:36.569Z,11.60
2019-03-09T14:20:04.330Z,11.60
2019-03-09T14:22:31.859Z,11.60
2019-03-09T14:24:59.254Z,11.60
2019-03-09T14:27:26.810Z,11.50
2019-03-09T14:29:54.321Z,11.40
2019-03-09T14:32:21.866Z,11.30
2019-03-09T14:34:49.358Z,11.20
2019-03-09T14:37:16.689Z,11.10
2019-03-09T14:39:43.988Z,11.00
2019-03-09T14:42:11.560Z,11.00
2019-03-09T14:44:39.097Z,10.90
2019-03-09T14:47:06.585Z,10.90
2019-03-09T14:49:39.663Z,10.90
2019-03-09T14:52:07.161Z,10.80
2019-03-09T14:54:35.793Z,10.70
2019-03-09T14:57:03.150Z,10.60
2019-03-09T14:59:30.454Z,10.50
2019-03-09T15:01:57.961Z,10.40
2019-03-09T15:04:25.486Z,10.30
2019-03-09T15:06:53.087Z,10.10
2019-03-09T15:09:20.425Z,10.00
2019-03-09T15:11:47.894Z,9.80
2019-03-09T15:14:15.323Z,9.70
2019-03-09T15:16:42.813Z,9.60
2019-03-09T15:19:10.615Z,9.40
2019-03-09T15:21:38.545Z,9.30
2019-03-09T15:24:05.993Z,9.20
2019-03-09T15:26:33.346Z,9.10
2019-03-09T15:29:00.946Z,9.00
2019-03-09T15:31:30.354Z,8.90
2019-03-09T15:33:57.749Z,8.90
2019-03-09T15:36:25.122Z,8.80
2019-03-09T15:38:52.898Z,8.70
2019-03-09T15:41:20.430Z,8.70
2019-03-09T15:43:47.781Z,8.70
2019-03-09T15:46:15.863Z,8.70
2019-03-09T15:48:45.226Z,8.60
2019-03-09T15:51:12.653Z,8.70
2019-03-09T15:53:40.077Z,8.70
2019-03-09T15:56:08.039Z,8.70
2019-03-09T15:58:37.247Z,8.80
2019-03-09T16:01:04.990Z,8.80
2019-03-09T16:03:32.324Z,8.80
2019-03-09T16:05:59.817Z,8.70
2019-03-09T16:08:27.161Z,8.60
2019-03-09T16:10:54.546Z,8.50
2019-03-09T16:13:24.238Z,8.50
2019-03-09T16:15:54.173Z,8.60
2019-03-09T16:18:21.506Z,8.60
2019-03-09T16:20:48.829Z,8.60
2019-03-09T16:23:16.154Z,8.60
2019-03-09T16:25:43.398Z,8.60
2019-03-09T16:28:10.904Z,8.50
2019-03-09T16:30:39.470Z,8.50
2019-03-09T16:33:06.892Z,8.50
2019-03-09T16:35:34.355Z,8.50
2019-03-09T16:38:01.801Z,8.40
2019-03-09T16:40:29.105Z,8.50
2019-03-09T16:42:56.556Z,8.50
2019-03-09T16:45:24.081Z,8.40
2019-03-09T16:47:51.940Z,8.20
2019-03-09T16:50:19.323Z,8.10
2019-03-09T16:52:46.643Z,8.10
2019-03-09T16:55:15.206Z,8.00
2019-03-09T16:57:42.668Z,7.90
2019-03-09T17:00:16.275Z,7.90
2019-03-09T17:02:43.802Z,7.80
2019-03-09T17:05:11.798Z,7.90
2019-03-09T17:07:39.562Z,7.80
2019-03-09T17:10:07.375Z,7.80
2019-03-09T17:12:36.723Z,7.80
2019-03-09T17:15:05.500Z,7.70
2019-03-09T17:17:33.069Z,7.70
2019-03-09T17:20:00.563Z,7.70
2019-03-09T17:22:32.897Z,7.60
2019-03-09T17:24:58.087Z,7.50
2019-03-09T17:27:25.626Z,7.40
2019-03-09T17:29:54.878Z,7.40
2019-03-09T17:32:25.755Z,7.30
2019-03-09T17:34:51.625Z,7.20
2019-03-09T17:37:18.927Z,7.10
2019-03-09T17:39:46.262Z,7.00
2019-03-09T17:42:13.649Z,6.90
2019-03-09T17:44:42.926Z,6.80
2019-03-09T17:47:10.769Z,6.80
2019-03-09T17:49:38.185Z,6.70
2019-03-09T17:52:05.570Z,6.60
2019-03-09T17:54:32.871Z,6.50
2019-03-09T17:57:00.415Z,6.50
2019-03-09T17:59:28.927Z,6.40
2019-03-09T18:01:56.546Z,6.40
2019-03-09T18:04:24.062Z,6.40
2019-03-09T18:06:51.513Z,6.30
2019-03-09T18:09:19.084Z,6.30
2019-03-09T18:11:46.583Z,6.30
2019-03-09T18:14:14.098Z,6.30
2019-03-09T18:16:41.462Z,6.20
2019-03-09T18:19:08.763Z,6.20
2019-03-09T18:21:36.206Z,6.20
2019-03-09T18:24:03.530Z,6.20
2019-03-09T18:26:31.051Z,6.10
2019-03-09T18:28:58.608Z,6.10
2019-03-09T18:31:26.018Z,6.10
2019-03-09T18:33:53.973Z,6.00
2019-03-09T18:36:22.019Z,6.00
2019-03-09T18:38:49.571Z,6.00
2019-03-09T18:41:16.874Z,5.90
2019-03-09T18:43:44.541Z,5.90
2019-03-09T18:46:13.814Z,5.90
2019-03-09T18:48:41.589Z,5.90
2019-03-09T18:51:09.192Z,5.90
2019-03-09T18:53:36.745Z,5.90
2019-03-09T18:56:04.670Z,5.90
2019-03-09T18:58:32.157Z,5.90
2019-03-09T19:00:59.606Z,6.00
2019-03-09T19:03:26.895Z,6.10
2019-03-09T19:05:56.144Z,6.00
2019-03-09T19:08:24.979Z,6.00
2019-03-09T19:10:52.886Z,6.00
2019-03-09T19:13:20.391Z,6.00
2019-03-09T19:15:48.009Z,6.00
2019-03-09T19:18:15.522Z,6.00
2019-03-09T19:20:44.925Z,6.00
2019-03-09T19:23:14.307Z,6.00
2019-03-09T19:25:41.901Z,6.00
2019-03-09T19:28:09.515Z,6.00
2019-03-09T19:30:37.035Z,6.00
2019-03-09T19:33:04.954Z,6.00
2019-03-09T19:35:32.413Z,6.00
2019-03-09T19:37:59.995Z,6.00
2019-03-09T19:40:27.525Z,6.00
2019-03-09T19:42:55.277Z,6.00
2019-03-09T19:45:22.884Z,6.00
2019-03-09T19:47:50.512Z,6.00
2019-03-09T19:50:17.947Z,6.00
2019-03-09T19:52:45.386Z,6.00
2019-03-09T19:55:13.012Z,6.00
2019-03-09T19:57:40.348Z,6.00
2019-03-09T20:00:08.958Z,6.00
2019-03-09T20:02:36.766Z,6.10
2019-03-09T20:05:07.226Z,6.10
2019-03-09T20:07:34.299Z,6.10
2019-03-09T20:10:01.689Z,6.00
2019-03-09T20:12:30.289Z,6.00
2019-03-09T20:14:57.651Z,6.00
2019-03-09T20:17:25.068Z,6.00
2019-03-09T20:19:54.682Z,5.90
2019-03-09T20:22:22.061Z,5.90
2019-03-09T20:24:49.448Z,5.90
2019-03-09T20:27:16.923Z,5.90
2019-03-09T20:29:45.409Z,5.90
2019-03-09T20:32:12.816Z,5.90
2019-03-09T20:34:40.220Z,5.90
2019-03-09T20:37:07.665Z,5.90
2019-03-09T20:39:35.000Z,5.90
2019-03-09T20:42:02.494Z,5.90
2019-03-09T20:44:29.975Z,5.90
2019-03-09T20:46:57.640Z,5.90
2019-03-09T20:49:25.219Z,6.00
2019-03-09T20:51:53.227Z,6.00
2019-03-09T20:54:21.703Z,6.00
2019-03-09T20:56:49.260Z,6.00
2019-03-09T20:59:16.894Z,6.00
2019-03-09T21:01:44.226Z,6.00
2019-03-09T21:04:11.831Z,6.00
2019-03-09T21:06:39.170Z,6.00
2019-03-09T21:09:07.578Z,6.00
2019-03-09T21:11:35.990Z,6.00
2019-03-09T21:14:03.482Z,6.00
2019-03-09T21:16:30.983Z,6.10
2019-03-09T21:18:58.368Z,6.00
2019-03-09T21:21:26.845Z,6.00
2019-03-09T21:23:56.506Z,6.00
2019-03-09T21:26:24.091Z,5.90
2019-03-09T21:28:51.589Z,5.90
2019-03-09T21:31:19.626Z,5.90
2019-03-09T21:33:47.026Z,5.90
2019-03-09T21:36:14.547Z,5.80
2019-03-09T21:38:42.221Z,5.90
2019-03-09T21:41:09.535Z,5.80
2019-03-09T21:43:36.941Z,5.80
2019-03-09T21:46:04.495Z,5.80
2019-03-09T21:48:32.022Z,5.80
2019-03-09T21:50:59.500Z,5.80
2019-03-09T21:53:26.816Z,5.80
2019-03-09T21:55:54.566Z,5.80
2019-03-09T21:58:21.957Z,5.80
2019-03-09T22:00:49.277Z,5.80
2019-03-09T22:03:18.271Z,5.80
2019-03-09T22:05:45.668Z,5.70
2019-03-09T22:08:13.070Z,5.70
2019-03-09T22:10:40.394Z,5.70
2019-03-09T22:13:07.893Z,5.70
2019-03-09T22:15:35.473Z,5.60
2019-03-09T22:18:02.777Z,5.70
2019-03-09T22:20:30.474Z,5.60
2019-03-09T22:22:57.872Z,5.60
2019-03-09T22:25:25.235Z,5.60
2019-03-09T22:27:52.751Z,5.60
2019-03-09T22:30:21.053Z,5.60
2019-03-09T22:32:48.480Z,5.50
2019-03-09T22:35:15.965Z,5.60
2019-03-09T22:37:43.416Z,5.60
2019-03-09T22:40:11.042Z,5.60
2019-03-09T22:42:38.524Z,5.60
2019-03-09T22:45:06.891Z,5.60
2019-03-09T22:47:34.390Z,5.60
2019-03-09T22:50:01.874Z,5.60
2019-03-09T22:52:29.424Z,5.60
2019-03-09T22:54:56.830Z,5.60
2019-03-09T22:57:25.396Z,5.60
2019-03-09T22:59:52.946Z,5.60
2019-03-09T23:02:22.345Z,5.60
2019-03-09T23:04:49.846Z,5.60
2019-03-09T23:07:18.377Z,5.60
2019-03-09T23:09:45.875Z,5.60
2019-03-09T23:12:13.452Z,5.60
2019-03-09T23:14:41.043Z,5.60
2019-03-09T23:17:08.610Z,5.60
2019-03-09T23:19:35.966Z,5.60
2019-03-09T23:22:03.250Z,5.60
2019-03-09T23:24:30.637Z,5.60
2019-03-09T23:26:57.923Z,5.60
2019-03-09T23:29:25.255Z,5.60
2019-03-09T23:31:53.098Z,5.60
2019-03-09T23:34:21.501Z,5.70
2019-03-09T23:36:48.989Z,5.70
2019-03-09T23:39:17.997Z,5.70
2019-03-09T23:41:45.279Z,5.70
2019-03-09T23:44:12.610Z,5.70
2019-03-09T23:46:40.170Z,5.70
2019-03-09T23:49:07.851Z,5.70
2019-03-09T23:51:36.715Z,5.70
2019-03-09T23:54:04.294Z,5.70
2019-03-09T23:56:31.711Z,5.70
2019-03-09T23:58:59.131Z,5.80
